CheckWX is a tool to help pilots better visualize weather data.  It is not intended as a substitute for an official pre-flight weather briefing.

08:43:24 UTC

KGMJ METAR
Grove Municipal Airport
Grove, Oklahoma, USA
Current

28 mins ago

KGMJ 240815Z AUTO 00000KT 7SM -DZ SCT002 OVC008 08/08 A2970 RMK AO2
Observed
Feb-24 @ 08:15 UTC
Visibility
7 SM
Flight Rules
IFR
Conditions
Light Drizzle
Cloud Levels
  • Scattered at 200' AGL
  • Overcast at 800' AGL
Temperature
C / 46°F
Dewpoint
C / 46°F
Humidity
100%
Altimeter
29.7" Hg
Pressure
1005.72 hPa
Previous

48 mins ago

KGMJ 240755Z AUTO 08004KT 5SM +DZ SCT002 OVC008 08/08 A2971 RMK AO2 P0003
Observed
Feb-24 @ 07:55 UTC
Wind
  • 080° at 4 KTS
Visibility
5 SM
Flight Rules
IFR
Conditions
Heavy Drizzle
Cloud Levels
  • Scattered at 200' AGL
  • Overcast at 800' AGL
Temperature
C / 46°F
Dewpoint
C / 46°F
Humidity
100%
Altimeter
29.71" Hg
Pressure
1006.12 hPa
Current Rain
0.03"
Previous

1 hour ago

KGMJ 240735Z AUTO 05004KT 5SM DZ OVC008 08/08 A2973 RMK AO2 P0002
Observed
Feb-24 @ 07:35 UTC
Wind
  • 050° at 4 KTS
Visibility
5 SM
Flight Rules
IFR
Conditions
Drizzle
Cloud Levels
  • Overcast at 800' AGL
Temperature
C / 46°F
Dewpoint
C / 46°F
Humidity
100%
Altimeter
29.73" Hg
Pressure
1006.82 hPa
Current Rain
0.02"